Time;durP1;ratioP1;P1;durP2;ratioP2;P2;SDS_P1;SDS_P2;PMS_P1;PMS_P2;Temp;Humidity;BMP_temperature;BMP_pressure;BME280_temperature;BME280_humidity;BME280_pressure;Samples;Min_cycle;Max_cycle;Signal;HPM_P1;HPM_P2
2021/08/23 00:01:51;;;;;;;5.25;3.20;;;;;;;15.78;68.39;100155.50;10444077;28;20053;-66
2021/08/23 00:06:53;;;;;;;9.32;3.22;;;;;;;15.65;68.33;100144.22;10432235;28;20748;-66
2021/08/23 00:11:55;;;;;;;5.82;3.35;;;;;;;15.59;68.64;100152.59;10444137;28;20107;-66
2021/08/23 00:16:56;;;;;;;13.32;4.68;;;;;;;15.39;68.38;100161.16;10443891;28;20128;-66
2021/08/23 00:22:07;;;;;;;8.20;3.60;;;;;;;15.17;68.94;100169.00;10443817;28;20132;-66
2021/08/23 00:27:09;;;;;;;8.10;3.00;;;;;;;15.36;68.95;100156.13;10442709;28;20125;-66
2021/08/23 00:32:11;;;;;;;6.18;3.83;;;;;;;15.40;68.66;100162.84;10444237;28;20080;-66
2021/08/23 00:37:14;;;;;;;7.68;3.90;;;;;;;15.36;68.90;100151.69;10425928;28;20486;-66
2021/08/23 00:42:16;;;;;;;4.95;3.65;;;;;;;15.33;68.51;100153.72;10441781;28;20131;-66
2021/08/23 00:47:18;;;;;;;14.07;4.60;;;;;;;15.24;68.88;100165.81;10443148;28;20569;-66
2021/08/23 00:52:20;;;;;;;9.77;4.63;;;;;;;15.08;69.00;100174.97;10443709;28;20140;-66
2021/08/23 00:57:21;;;;;;;11.38;5.05;;;;;;;14.98;69.32;100174.78;10443045;28;20080;-66
2021/08/23 01:02:40;;;;;;;5.97;4.00;;;;;;;14.99;69.58;100178.28;10441768;28;20135;-66
2021/08/23 01:08:02;;;;;;;9.77;4.28;;;;;;;15.05;68.83;100180.44;10442981;28;20502;-66
2021/08/23 01:13:07;;;;;;;8.80;4.28;;;;;;;15.16;68.62;100183.97;10443482;28;20095;-66
2021/08/23 01:18:09;;;;;;;24.75;5.35;;;;;;;15.16;68.52;100180.50;10443186;28;20143;-66
2021/08/23 01:23:12;;;;;;;40.10;7.28;;;;;;;15.02;68.42;100178.06;10443272;28;20132;-67
2021/08/23 01:28:51;;;;;;;151.82;9.60;;;;;;;14.94;68.58;100183.06;10445676;28;20083;-66
2021/08/23 01:33:53;;;;;;;418.35;14.05;;;;;;;14.94;68.50;100186.50;10445457;28;20091;-66
2021/08/23 01:38:55;;;;;;;710.53;20.40;;;;;;;14.85;68.48;100178.44;10451035;28;20072;-66
2021/08/23 01:43:57;;;;;;;382.38;10.45;;;;;;;14.71;68.87;100170.72;10450484;28;20128;-67
2021/08/23 01:49:00;;;;;;;408.52;15.43;;;;;;;14.64;68.58;100172.94;10449875;28;20650;-66
2021/08/23 01:54:02;;;;;;;68.45;7.85;;;;;;;14.54;69.23;100180.69;10450088;28;20136;-66
2021/08/23 01:59:04;;;;;;;6.88;5.45;;;;;;;14.48;69.17;100181.09;10450624;28;20076;-66
2021/08/23 02:04:06;;;;;;;6.93;4.18;;;;;;;14.40;69.29;100185.22;10455662;28;20094;-66
2021/08/23 02:09:08;;;;;;;6.20;4.47;;;;;;;14.54;69.10;100178.06;10458862;28;20080;-66
2021/08/23 02:14:10;;;;;;;9.07;4.43;;;;;;;14.53;68.99;100181.63;10418746;28;20080;-66
2021/08/23 02:19:12;;;;;;;8.68;4.72;;;;;;;14.64;68.73;100182.63;10458321;28;20080;-66
2021/08/23 02:24:14;;;;;;;12.27;3.80;;;;;;;14.67;68.86;100200.84;10451322;28;20513;-66
2021/08/23 02:29:16;;;;;;;37.63;6.72;;;;;;;14.24;70.00;100208.31;10432124;28;20081;-66
2021/08/23 02:34:18;;;;;;;10.75;5.57;;;;;;;14.26;70.37;100209.03;10457564;28;20068;-66
2021/08/23 02:39:19;;;;;;;10.35;5.93;;;;;;;14.28;70.23;100218.50;10456885;28;20095;-65
2021/08/23 02:44:21;;;;;;;13.38;4.68;;;;;;;14.50;70.03;100216.06;10455344;28;20084;-67
2021/08/23 02:49:24;;;;;;;11.20;4.60;;;;;;;14.87;69.42;100230.06;10456724;28;20072;-65
2021/08/23 02:54:26;;;;;;;16.63;7.47;;;;;;;15.03;68.78;100230.63;10457222;28;20044;-65
2021/08/23 02:59:27;;;;;;;8.60;4.60;;;;;;;15.18;68.66;100232.13;10456565;28;20559;-65
2021/08/23 03:04:29;;;;;;;10.90;4.25;;;;;;;15.25;68.32;100219.31;10452597;28;20099;-65
2021/08/23 03:09:31;;;;;;;11.63;4.40;;;;;;;15.27;68.13;100233.22;10451096;28;20080;-65
2021/08/23 03:14:32;;;;;;;11.32;4.20;;;;;;;15.31;67.97;100230.25;10448583;28;20136;-65
2021/08/23 03:19:34;;;;;;;11.07;4.88;;;;;;;15.36;68.24;100232.56;10448293;28;20470;-65
2021/08/23 03:24:36;;;;;;;12.88;4.80;;;;;;;15.39;67.57;100227.88;10449295;28;20089;-66
2021/08/23 03:29:37;;;;;;;10.30;4.40;;;;;;;15.44;67.74;100232.81;10449001;28;20132;-65
2021/08/23 03:34:39;;;;;;;9.55;4.40;;;;;;;15.43;67.60;100241.66;10448318;28;20080;-65
2021/08/23 03:39:41;;;;;;;8.45;4.93;;;;;;;15.43;67.75;100241.66;10448132;28;20068;-66
2021/08/23 03:44:43;;;;;;;10.35;4.43;;;;;;;15.49;67.53;100235.13;10448375;28;20069;-66
2021/08/23 03:49:45;;;;;;;8.75;5.15;;;;;;;15.44;67.69;100235.44;10446766;28;20102;-66
2021/08/23 03:54:47;;;;;;;7.45;3.83;;;;;;;15.37;67.48;100244.75;10447872;28;20135;-65
2021/08/23 03:59:49;;;;;;;8.75;3.58;;;;;;;15.32;67.91;100244.28;10409891;28;20136;-65
2021/08/23 04:04:51;;;;;;;7.20;2.70;;;;;;;15.24;68.11;100246.63;10447035;28;20633;-65
2021/08/23 04:09:53;;;;;;;4.43;2.70;;;;;;;15.32;68.00;100246.91;10446923;28;20375;-65
2021/08/23 04:14:55;;;;;;;7.82;3.80;;;;;;;15.30;67.71;100243.56;10446978;28;20135;-66
2021/08/23 04:19:59;;;;;;;9.55;3.08;;;;;;;15.26;68.13;100234.19;10445598;28;20077;-65
2021/08/23 04:25:01;;;;;;;10.35;3.10;;;;;;;15.32;67.98;100239.84;10446397;28;20714;-66
2021/08/23 04:30:03;;;;;;;5.30;3.20;;;;;;;15.32;68.19;100237.22;10446340;28;20095;-66
2021/08/23 04:35:05;;;;;;;8.20;3.35;;;;;;;15.31;68.23;100239.94;10446123;28;20080;-65
2021/08/23 04:40:07;;;;;;;8.75;2.75;;;;;;;15.26;68.37;100257.91;10446074;28;20049;-65
2021/08/23 04:45:10;;;;;;;5.75;2.88;;;;;;;15.27;68.33;100251.66;10445359;28;20084;-66
2021/08/23 04:50:11;;;;;;;7.55;3.20;;;;;;;15.34;68.03;100258.19;10431657;28;20084;-66
2021/08/23 04:55:13;;;;;;;6.15;3.22;;;;;;;15.30;67.95;100272.53;10444338;28;20745;-65
2021/08/23 05:00:15;;;;;;;5.63;2.35;;;;;;;15.24;68.15;100268.56;10445312;28;20099;-65
2021/08/23 05:05:17;;;;;;;7.75;2.85;;;;;;;15.33;68.06;100277.56;10444608;28;20091;-66
2021/08/23 05:10:19;;;;;;;7.82;2.50;;;;;;;15.49;67.58;100286.06;10445296;28;20087;-66
2021/08/23 05:15:21;;;;;;;6.75;2.33;;;;;;;15.57;67.51;100282.88;10444787;28;20088;-65
2021/08/23 05:20:23;;;;;;;4.90;2.40;;;;;;;15.37;68.01;100284.28;10444636;28;20135;-65
2021/08/23 05:25:25;;;;;;;6.35;2.65;;;;;;;15.30;68.12;100281.28;10460315;28;20139;-65
2021/08/23 05:30:26;;;;;;;4.30;2.60;;;;;;;15.62;67.67;100280.72;10443854;28;20596;-65
2021/08/23 05:35:28;;;;;;;8.90;2.60;;;;;;;15.83;67.25;100284.38;10444353;28;20454;-65
2021/08/23 05:40:32;;;;;;;7.72;2.60;;;;;;;15.94;66.92;100279.94;10443687;28;20134;-66
2021/08/23 05:45:33;;;;;;;7.30;3.97;;;;;;;16.19;66.32;100271.84;10443937;28;20131;-65
2021/08/23 05:50:35;;;;;;;4.53;2.30;;;;;;;16.11;66.46;100274.25;10425851;28;20481;-66
2021/08/23 05:55:37;;;;;;;7.25;2.15;;;;;;;16.24;66.25;100274.94;10445144;28;20103;-66
2021/08/23 06:00:39;;;;;;;3.33;2.22;;;;;;;16.55;65.75;100281.34;10459579;28;20084;-65
2021/08/23 06:05:41;;;;;;;6.50;2.95;;;;;;;16.64;64.98;100282.44;10429475;28;20065;-66
2021/08/23 06:10:46;;;;;;;5.93;2.58;;;;;;;16.74;65.39;100270.16;10414993;28;20080;-66
2021/08/23 06:15:47;;;;;;;5.20;2.85;;;;;;;16.84;64.88;100273.75;10417818;28;20135;-65
2021/08/23 06:20:50;;;;;;;4.82;2.65;;;;;;;17.01;64.68;100263.53;10427708;28;20069;-66
2021/08/23 06:25:52;;;;;;;5.40;2.70;;;;;;;17.18;64.43;100277.97;10416171;28;20485;-66
2021/08/23 06:30:54;;;;;;;10.40;3.80;;;;;;;17.31;63.77;100278.66;10429483;28;20613;-66
2021/08/23 06:35:56;;;;;;;5.93;3.42;;;;;;;17.52;63.32;100273.47;10413586;28;20452;-66
2021/08/23 06:40:57;;;;;;;8.40;3.70;;;;;;;17.85;62.40;100281.22;10423232;28;20653;-65
2021/08/23 06:45:59;;;;;;;9.85;3.65;;;;;;;18.24;61.98;100280.50;10416968;28;20602;-66
2021/08/23 06:51:01;;;;;;;5.65;2.90;;;;;;;18.42;61.50;100284.19;10447874;28;20408;-66
2021/08/23 06:56:03;;;;;;;8.57;2.75;;;;;;;18.44;61.27;100278.78;10430500;28;20143;-66
2021/08/23 07:01:05;;;;;;;7.32;2.90;;;;;;;18.37;61.58;100280.28;10421600;28;20140;-66
2021/08/23 07:06:07;;;;;;;9.27;3.20;;;;;;;18.38;61.71;100282.78;10449134;28;20095;-66
2021/08/23 07:11:18;;;;;;;6.53;3.72;;;;;;;18.67;61.09;100294.34;10413877;28;20068;-65
2021/08/23 07:16:20;;;;;;;5.68;3.63;;;;;;;18.95;60.27;100292.75;10441737;28;20128;-65
2021/08/23 07:21:22;;;;;;;7.05;3.92;;;;;;;19.17;59.65;100291.72;10444019;28;20485;-65
2021/08/23 07:26:24;;;;;;;6.70;3.50;;;;;;;19.45;58.97;100289.09;10444001;28;20091;-65
2021/08/23 07:31:25;;;;;;;7.40;3.50;;;;;;;19.38;59.17;100285.31;10441415;28;20454;-65
2021/08/23 07:36:27;;;;;;;7.13;3.95;;;;;;;19.69;58.70;100285.16;10448296;28;20137;-66
2021/08/23 07:41:29;;;;;;;5.80;4.40;;;;;;;19.97;57.67;100287.81;10446332;28;20486;-66
2021/08/23 07:46:31;;;;;;;5.90;3.80;;;;;;;20.49;56.75;100286.41;10447212;28;20128;-66
2021/08/23 07:51:33;;;;;;;8.52;5.28;;;;;;;21.21;55.42;100293.59;10439613;28;20076;-65
2021/08/23 07:56:35;;;;;;;7.07;4.63;;;;;;;22.12;53.54;100287.94;10447812;28;20048;-66
2021/08/23 08:01:37;;;;;;;7.80;3.40;;;;;;;22.85;52.13;100292.66;10443427;28;20076;-66
2021/08/23 08:06:39;;;;;;;6.47;3.20;;;;;;;23.02;51.88;100298.91;10412236;28;20136;-66
2021/08/23 08:11:40;;;;;;;6.07;3.22;;;;;;;23.06;51.14;100300.25;10447267;28;20127;-66
2021/08/23 08:16:42;;;;;;;6.65;3.10;;;;;;;23.27;50.05;100297.94;10447387;28;20107;-65
2021/08/23 08:21:44;;;;;;;4.28;3.40;;;;;;;23.78;48.88;100297.69;10444938;28;20480;-65
2021/08/23 08:26:46;;;;;;;5.50;3.38;;;;;;;23.89;49.43;100296.53;10446307;28;20136;-65
2021/08/23 08:31:47;;;;;;;5.63;3.90;;;;;;;23.75;49.05;100292.69;10446598;28;20087;-65
2021/08/23 08:36:49;;;;;;;7.40;4.22;;;;;;;23.79;48.07;100299.38;10444145;28;20105;-65
2021/08/23 08:41:51;;;;;;;6.28;3.90;;;;;;;24.79;46.25;100304.22;10446378;28;20115;-64
2021/08/23 08:46:55;;;;;;;8.00;3.53;;;;;;;25.16;44.97;100300.84;10413673;28;20076;-66
2021/08/23 08:51:57;;;;;;;5.90;3.90;;;;;;;24.33;46.00;100305.03;10435805;28;20474;-65
2021/08/23 08:57:03;;;;;;;9.10;5.60;;;;;;;22.95;48.73;100316.53;10440243;28;20086;-62
2021/08/23 09:02:05;;;;;;;8.27;5.30;;;;;;;22.23;50.60;100324.97;10464706;28;20088;-62
2021/08/23 09:07:09;;;;;;;8.23;5.47;;;;;;;22.18;51.05;100320.13;10432664;28;20497;-62
2021/08/23 09:12:14;;;;;;;7.20;5.50;;;;;;;22.23;50.34;100335.63;10421906;28;20485;-62
2021/08/23 09:17:15;;;;;;;7.47;5.53;;;;;;;22.42;50.49;100341.59;10445930;28;20106;-61
2021/08/23 09:22:18;;;;;;;7.80;5.32;;;;;;;22.13;50.10;100342.91;10444383;28;20052;-62
2021/08/23 09:27:20;;;;;;;10.48;5.55;;;;;;;22.58;48.90;100343.50;10439458;28;20084;-64
2021/08/23 09:32:25;;;;;;;7.97;5.00;;;;;;;23.32;48.35;100344.50;10443932;28;20073;-64
2021/08/23 09:37:29;;;;;;;9.52;4.60;;;;;;;23.63;47.47;100342.09;10444464;28;20123;-65
2021/08/23 09:42:31;;;;;;;4.90;4.25;;;;;;;23.72;46.54;100349.09;10443512;28;20075;-64
2021/08/23 09:47:32;;;;;;;7.43;5.55;;;;;;;23.51;46.13;100348.75;10411317;28;20696;-64
2021/08/23 09:52:34;;;;;;;8.75;5.30;;;;;;;23.75;46.28;100345.28;10438062;28;20220;-63
2021/08/23 09:57:38;;;;;;;7.28;5.25;;;;;;;24.06;46.12;100346.28;10443146;28;20052;-63
2021/08/23 10:02:46;;;;;;;7.47;5.10;;;;;;;23.85;45.90;100351.28;10450262;28;20504;-63
2021/08/23 10:07:48;;;;;;;7.07;5.38;;;;;;;23.74;46.36;100347.09;10466869;28;20087;-64
2021/08/23 10:12:51;;;;;;;5.60;4.60;;;;;;;23.96;46.09;100335.75;10448153;28;20462;-64
2021/08/23 10:17:53;;;;;;;6.05;4.40;;;;;;;24.41;44.78;100335.22;10433063;28;20045;-64
2021/08/23 10:22:56;;;;;;;5.40;4.25;;;;;;;25.07;43.92;100330.34;10450448;28;20136;-64
2021/08/23 10:28:08;;;;;;;5.78;3.92;;;;;;;24.97;42.43;100335.06;10429830;28;20069;-63
2021/08/23 10:33:18;;;;;;;5.75;3.92;;;;;;;24.95;43.09;100331.75;10447029;28;20068;-64
2021/08/23 10:38:23;;;;;;;7.30;4.18;;;;;;;25.60;42.08;100331.38;10449266;28;20111;-64
2021/08/23 10:43:27;;;;;;;9.95;4.15;;;;;;;26.15;41.67;100325.75;10450095;28;20080;-64
2021/08/23 10:48:29;;;;;;;5.85;3.90;;;;;;;25.62;42.13;100329.34;10446442;28;20073;-64
2021/08/23 10:53:38;;;;;;;5.60;4.07;;;;;;;25.28;41.99;100331.56;10432767;28;20091;-64
2021/08/23 10:58:40;;;;;;;;;;;;;;;24.62;43.50;100330.16;10449936;28;20140;-64
2021/08/23 11:03:42;;;;;;;6.18;4.47;;;;;;;24.77;44.17;100333.81;10449010;28;20087;-65
2021/08/23 11:08:45;;;;;;;6.05;4.68;;;;;;;24.85;43.90;100327.59;10440466;28;20060;-64
2021/08/23 11:13:48;;;;;;;7.28;5.13;;;;;;;24.59;43.84;100329.69;10448681;28;20106;-64
2021/08/23 11:18:50;;;;;;;7.25;4.75;;;;;;;24.90;43.63;100323.38;10446530;28;20122;-64
2021/08/23 11:23:51;;;;;;;8.10;6.10;;;;;;;24.37;44.00;100330.41;10426945;28;20135;-64
2021/08/23 11:28:53;;;;;;;7.63;5.13;;;;;;;24.10;44.14;100334.28;10440698;28;20124;-63
2021/08/23 11:34:02;;;;;;;5.90;5.28;;;;;;;24.38;44.89;100332.91;10426333;28;20117;-64
2021/08/23 11:39:11;;;;;;;;;;;;;;;24.59;43.10;100329.69;10433244;28;20120;-64
2021/08/23 11:44:12;;;;;;;4.88;3.17;;;;;;;24.85;44.01;100338.31;10436459;28;19982;-64
2021/08/23 11:49:25;;;;;;;4.32;2.38;;;;;;;24.76;44.70;100333.97;10430225;28;20132;-65
2021/08/23 11:54:27;;;;;;;4.65;3.22;;;;;;;24.45;44.10;100341.09;10444407;28;20132;-64
2021/08/23 11:59:28;;;;;;;3.85;2.45;;;;;;;24.21;44.46;100347.28;10436074;28;20124;-64
2021/08/23 12:04:30;;;;;;;4.80;2.65;;;;;;;23.74;45.30;100352.44;10434864;28;20088;-65
2021/08/23 12:09:34;;;;;;;4.13;2.40;;;;;;;23.70;44.98;100353.78;10441210;28;20572;-64
2021/08/23 12:14:36;;;;;;;3.72;2.60;;;;;;;23.93;45.07;100343.28;10436416;28;20536;-64
2021/08/23 12:19:38;;;;;;;3.15;2.00;;;;;;;23.93;45.65;100337.94;10439598;28;20055;-64
2021/08/23 12:24:41;;;;;;;3.10;2.38;;;;;;;23.90;46.33;100336.41;10431544;28;20127;-64
2021/08/23 12:29:45;;;;;;;2.92;2.15;;;;;;;23.95;45.15;100335.91;10443591;28;20132;-64
2021/08/23 12:34:51;;;;;;;3.33;2.10;;;;;;;24.24;45.33;100337.13;10464794;28;20102;-62
2021/08/23 12:39:53;;;;;;;4.85;2.33;;;;;;;24.98;44.45;100322.50;10432952;28;20131;-62
2021/08/23 12:44:55;;;;;;;3.45;2.50;;;;;;;25.42;43.52;100322.81;10442615;28;20045;-63
2021/08/23 12:49:57;;;;;;;4.03;2.20;;;;;;;25.27;43.29;100324.53;10440696;28;20045;-64
2021/08/23 12:54:59;;;;;;;4.43;2.78;;;;;;;25.30;43.85;100325.03;10442833;28;20124;-64
2021/08/23 13:00:02;;;;;;;3.33;2.50;;;;;;;25.20;43.43;100328.94;10424207;28;20077;-63
2021/08/23 13:05:05;;;;;;;3.90;2.70;;;;;;;25.07;43.53;100325.00;10442020;28;20044;-63
2021/08/23 13:10:08;;;;;;;4.53;3.15;;;;;;;24.46;46.48;100342.72;10440990;28;20127;-64
2021/08/23 13:15:09;;;;;;;20.85;4.20;;;;;;;21.39;54.79;100369.81;10436284;28;20382;-63
2021/08/23 13:20:12;;;;;;;4.30;2.95;;;;;;;19.25;59.53;100374.06;10438697;28;20133;-63
2021/08/23 13:25:14;;;;;;;5.88;3.58;;;;;;;18.64;61.37;100378.56;10442571;28;20135;-63
2021/08/23 13:30:16;;;;;;;6.78;5.03;;;;;;;18.89;63.45;100383.41;10435589;28;20049;-63
2021/08/23 13:35:18;;;;;;;7.30;4.30;;;;;;;19.09;63.40;100377.25;10441779;28;20049;-62
2021/08/23 13:40:19;;;;;;;7.80;4.57;;;;;;;19.48;63.30;100370.22;10449371;28;20075;-62
2021/08/23 13:45:22;;;;;;;6.53;4.53;;;;;;;19.92;64.29;100375.00;10453423;28;20053;-62
2021/08/23 13:50:23;;;;;;;5.35;3.47;;;;;;;20.38;62.86;100382.22;10441702;28;20081;-62
2021/08/23 13:55:26;;;;;;;7.25;3.97;;;;;;;20.59;63.36;100380.25;10454264;28;20302;-62
2021/08/23 14:00:28;;;;;;;6.43;4.18;;;;;;;20.80;63.46;100380.88;10423310;28;20124;-62
2021/08/23 14:05:30;;;;;;;6.50;4.00;;;;;;;20.91;62.97;100380.66;10437544;28;20107;-62
2021/08/23 14:10:33;;;;;;;8.35;4.50;;;;;;;21.19;62.67;100370.03;10444010;28;20133;-62
2021/08/23 14:15:35;;;;;;;6.38;3.75;;;;;;;21.40;62.56;100371.47;10465825;28;20127;-63
2021/08/23 14:20:37;;;;;;;5.85;4.10;;;;;;;21.54;61.83;100378.09;10439590;28;20045;-63
2021/08/23 14:25:39;;;;;;;5.70;4.07;;;;;;;21.56;62.00;100370.78;10451053;28;20483;-63
2021/08/23 14:30:41;;;;;;;4.97;3.70;;;;;;;21.77;61.45;100376.66;10449981;28;20185;-63
2021/08/23 14:35:43;;;;;;;6.75;3.65;;;;;;;22.04;61.50;100368.63;10449573;28;20096;-63
2021/08/23 14:40:44;;;;;;;4.38;3.20;;;;;;;21.87;60.71;100374.75;10441488;28;20053;-62
2021/08/23 14:45:46;;;;;;;5.70;3.40;;;;;;;21.69;60.66;100397.91;10450156;28;20136;-63
2021/08/23 14:50:48;;;;;;;4.53;3.67;;;;;;;21.28;61.89;100403.72;10449168;28;20080;-62
2021/08/23 14:55:50;;;;;;;4.65;3.22;;;;;;;21.06;62.42;100402.31;10449901;28;20084;-62
2021/08/23 15:00:51;;;;;;;5.13;3.95;;;;;;;20.89;61.97;100414.53;10422091;28;20132;-62
2021/08/23 15:05:53;;;;;;;6.80;4.32;;;;;;;20.70;62.81;100421.75;10434621;28;20145;-62
2021/08/23 15:10:55;;;;;;;5.05;3.72;;;;;;;20.84;62.52;100431.94;10437239;28;20127;-62
2021/08/23 15:15:57;;;;;;;6.85;4.00;;;;;;;20.92;59.59;100429.38;10434927;28;20044;-62
2021/08/23 15:20:59;;;;;;;5.20;3.90;;;;;;;20.82;57.54;100433.88;10448739;28;20492;-62
2021/08/23 15:26:01;;;;;;;4.72;3.72;;;;;;;20.72;59.29;100438.41;10425187;28;20608;-62
2021/08/23 15:31:02;;;;;;;6.53;4.07;;;;;;;20.84;57.42;100438.09;10447344;28;20156;-63
2021/08/23 15:36:07;;;;;;;5.15;3.83;;;;;;;21.08;57.58;100427.78;10446040;28;20041;-64
2021/08/23 15:41:12;;;;;;;9.25;3.97;;;;;;;21.44;56.26;100438.53;10454172;28;20131;-63
2021/08/23 15:46:13;;;;;;;4.47;3.17;;;;;;;21.63;56.57;100438.44;10434039;28;20103;-62
2021/08/23 15:51:16;;;;;;;5.53;3.42;;;;;;;21.65;55.16;100439.97;10441975;28;20059;-62
2021/08/23 15:56:18;;;;;;;5.68;3.47;;;;;;;21.30;55.49;100455.81;10430776;28;20107;-63
2021/08/23 16:01:20;;;;;;;6.18;3.83;;;;;;;21.18;55.88;100450.81;10428500;28;20128;-62
2021/08/23 16:06:22;;;;;;;4.97;3.75;;;;;;;21.36;56.32;100455.25;10444655;28;20140;-62
2021/08/23 16:11:24;;;;;;;4.93;3.15;;;;;;;21.39;56.46;100460.28;10436304;28;20145;-62
2021/08/23 16:16:25;;;;;;;4.75;2.83;;;;;;;21.13;56.40;100467.22;10439584;28;20087;-62
2021/08/23 16:21:27;;;;;;;7.22;4.03;;;;;;;21.25;56.11;100465.22;10443769;28;20045;-62
2021/08/23 16:26:29;;;;;;;4.78;3.35;;;;;;;21.17;55.58;100476.56;10435908;28;20774;-62
2021/08/23 16:31:31;;;;;;;6.03;3.90;;;;;;;21.02;54.81;100483.38;10429928;28;20079;-63
2021/08/23 16:36:33;;;;;;;7.28;4.53;;;;;;;20.75;54.95;100478.81;10437753;28;20038;-63
2021/08/23 16:41:35;;;;;;;7.80;4.57;;;;;;;20.78;55.08;100481.19;10440273;28;20084;-63
2021/08/23 16:46:37;;;;;;;5.80;4.57;;;;;;;20.95;55.50;100485.75;10439302;28;20175;-63
2021/08/23 16:51:39;;;;;;;7.65;5.18;;;;;;;20.92;55.54;100486.06;10441064;28;20132;-63
2021/08/23 16:56:41;;;;;;;7.88;5.20;;;;;;;20.87;56.71;100490.09;10442966;28;20131;-63
2021/08/23 17:01:43;;;;;;;6.75;4.53;;;;;;;20.63;55.17;100493.25;10444912;28;20132;-63
2021/08/23 17:06:45;;;;;;;7.95;4.45;;;;;;;20.48;55.89;100494.63;10434279;28;20061;-63
2021/08/23 17:11:47;;;;;;;7.18;4.38;;;;;;;20.07;55.63;100490.41;10446109;28;20076;-63
2021/08/23 17:16:49;;;;;;;7.38;4.78;;;;;;;20.02;57.27;100497.13;10445051;28;20080;-63
2021/08/23 17:21:51;;;;;;;5.63;4.13;;;;;;;19.98;57.04;100490.41;10446062;28;20049;-64
2021/08/23 17:26:53;;;;;;;7.22;4.30;;;;;;;19.82;57.34;100501.59;10426928;28;20085;-63
2021/08/23 17:31:55;;;;;;;5.53;4.15;;;;;;;19.62;57.92;100497.19;10406915;28;20049;-63
2021/08/23 17:36:57;;;;;;;7.75;4.93;;;;;;;19.70;58.49;100504.44;10440419;28;20144;-63
2021/08/23 17:41:59;;;;;;;6.72;4.28;;;;;;;19.54;57.86;100514.75;10441046;28;20471;-63
2021/08/23 17:47:02;;;;;;;6.53;4.30;;;;;;;19.52;59.00;100519.34;10466961;28;20049;-63
2021/08/23 17:52:05;;;;;;;6.05;3.88;;;;;;;19.31;59.30;100520.25;10434888;28;20128;-63
2021/08/23 17:57:07;;;;;;;7.18;4.80;;;;;;;19.21;59.71;100524.66;10435224;28;20075;-63
2021/08/23 18:02:09;;;;;;;9.60;4.97;;;;;;;19.14;60.93;100531.44;10443463;28;20140;-63
2021/08/23 18:07:11;;;;;;;8.27;4.60;;;;;;;19.00;61.41;100550.31;10437536;28;20053;-63
2021/08/23 18:12:13;;;;;;;7.93;4.85;;;;;;;18.81;61.97;100549.38;10431315;28;20086;-63
2021/08/23 18:17:15;;;;;;;10.07;7.55;;;;;;;18.68;62.81;100560.13;10441222;28;20505;-63
2021/08/23 18:22:17;;;;;;;10.32;6.80;;;;;;;18.55;63.60;100564.75;10446396;28;20057;-63
2021/08/23 18:27:19;;;;;;;14.05;7.60;;;;;;;18.42;64.09;100558.81;10436982;28;20075;-63
2021/08/23 18:32:20;;;;;;;8.35;6.68;;;;;;;18.28;64.46;100567.06;10439735;28;20140;-63
2021/08/23 18:37:22;;;;;;;9.57;6.63;;;;;;;18.19;64.74;100570.41;10445845;28;20079;-63
2021/08/23 18:42:24;;;;;;;14.90;7.85;;;;;;;18.13;64.75;100578.84;10450231;28;20107;-60
2021/08/23 18:47:26;;;;;;;10.80;7.47;;;;;;;18.01;64.71;100579.84;10438664;28;20079;-60
2021/08/23 18:52:28;;;;;;;17.23;8.18;;;;;;;17.87;65.00;100586.25;10449455;28;20470;-60
2021/08/23 18:57:30;;;;;;;16.80;7.93;;;;;;;17.79;65.02;100605.34;10450147;28;20076;-60
2021/08/23 19:02:31;;;;;;;13.95;9.23;;;;;;;17.70;65.48;100598.16;10449327;28;20135;-60
2021/08/23 19:07:33;;;;;;;12.32;7.55;;;;;;;17.56;65.53;100606.31;10439819;28;20057;-59
2021/08/23 19:12:35;;;;;;;10.45;6.75;;;;;;;17.51;65.89;100618.19;10448817;28;20111;-60
2021/08/23 19:17:37;;;;;;;10.48;8.85;;;;;;;17.50;65.80;100621.81;10448453;28;20140;-61
2021/08/23 19:22:39;;;;;;;12.80;8.85;;;;;;;17.44;65.86;100625.78;10446898;28;20139;-60
2021/08/23 19:27:41;;;;;;;11.35;8.00;;;;;;;17.39;66.08;100633.22;10438944;28;20120;-59
2021/08/23 19:32:42;;;;;;;10.27;8.55;;;;;;;17.27;66.19;100630.63;10447634;28;20132;-60
2021/08/23 19:37:44;;;;;;;13.05;7.70;;;;;;;17.22;66.46;100632.81;10447787;28;20072;-60
2021/08/23 19:42:46;;;;;;;13.18;9.27;;;;;;;16.99;66.59;100634.53;10448266;28;20472;-59
2021/08/23 19:47:47;;;;;;;16.67;8.60;;;;;;;16.97;66.64;100639.09;10452049;28;20079;-59
2021/08/23 19:52:50;;;;;;;16.70;8.73;;;;;;;16.96;66.47;100650.63;10429208;28;20041;-59
2021/08/23 19:57:56;;;;;;;13.70;8.07;;;;;;;16.91;66.99;100653.63;10438568;28;20128;-59
2021/08/23 20:03:00;;;;;;;16.95;9.57;;;;;;;16.88;66.70;100661.75;10445071;28;20088;-59
2021/08/23 20:08:03;;;;;;;13.73;8.63;;;;;;;16.80;66.80;100664.13;10446307;28;20052;-59
2021/08/23 20:13:11;;;;;;;13.60;7.63;;;;;;;16.75;66.72;100668.06;10436738;28;20551;-60
2021/08/23 20:18:13;;;;;;;9.40;5.55;;;;;;;16.69;66.69;100669.34;10427317;28;20892;-59
2021/08/23 20:23:16;;;;;;;14.43;8.25;;;;;;;16.65;66.38;100665.25;10438531;28;20502;-59
2021/08/23 20:28:18;;;;;;;8.02;7.00;;;;;;;16.56;66.89;100665.09;10446206;28;20091;-59
2021/08/23 20:33:26;;;;;;;10.65;6.65;;;;;;;16.47;67.10;100671.88;10438783;28;20123;-60
2021/08/23 20:38:28;;;;;;;13.70;7.65;;;;;;;16.17;67.21;100677.53;10445079;28;20060;-59
2021/08/23 20:43:45;;;;;;;16.05;9.88;;;;;;;15.96;67.50;100675.53;10443098;28;20052;-59
2021/08/23 20:48:50;;;;;;;14.18;8.68;;;;;;;15.93;67.43;100671.34;10444693;28;20049;-59
2021/08/23 20:53:52;;;;;;;14.93;9.50;;;;;;;15.89;67.50;100669.88;10444352;28;21214;-59
2021/08/23 20:58:54;;;;;;;10.45;8.20;;;;;;;15.82;67.53;100676.53;10444568;28;20132;-59
2021/08/23 21:03:56;;;;;;;17.40;9.52;;;;;;;15.79;67.54;100689.94;10443598;28;20593;-60
2021/08/23 21:08:59;;;;;;;18.65;8.98;;;;;;;15.79;67.86;100691.72;10444374;28;20549;-60
2021/08/23 21:14:05;;;;;;;22.10;9.02;;;;;;;15.72;67.38;100690.44;10440758;28;20490;-60
2021/08/23 21:19:07;;;;;;;18.33;7.53;;;;;;;15.67;67.57;100695.22;10406766;28;20562;-60
2021/08/23 21:24:09;;;;;;;45.28;13.45;;;;;;;15.64;67.55;100692.75;10424328;28;20087;-60
2021/08/23 21:29:11;;;;;;;28.77;9.27;;;;;;;15.54;67.71;100691.72;10438556;28;20048;-59
2021/08/23 21:34:13;;;;;;;39.92;7.90;;;;;;;15.48;67.67;100692.94;10440725;28;20120;-59
2021/08/23 21:39:15;;;;;;;377.88;20.42;;;;;;;15.42;67.54;100696.84;10434717;28;20081;-60
2021/08/23 21:44:16;;;;;;;353.20;17.30;;;;;;;15.36;67.54;100696.41;10441595;28;20136;-59
2021/08/23 21:49:18;;;;;;;193.63;12.02;;;;;;;15.33;67.75;100701.88;10448645;28;20140;-59
2021/08/23 21:54:20;;;;;;;479.88;20.98;;;;;;;15.35;67.64;100695.56;10449352;28;20044;-59
2021/08/23 21:59:21;;;;;;;26.27;6.57;;;;;;;15.30;68.00;100702.09;10449229;28;20053;-59
2021/08/23 22:04:24;;;;;;;253.48;13.10;;;;;;;15.24;67.87;100702.50;10447275;28;20132;-59
2021/08/23 22:09:26;;;;;;;22.92;6.60;;;;;;;14.99;68.21;100702.44;10448349;28;20053;-59
2021/08/23 22:14:28;;;;;;;18.67;7.68;;;;;;;14.98;68.16;100700.75;10448452;28;20128;-59
2021/08/23 22:19:30;;;;;;;473.77;19.90;;;;;;;14.97;68.19;100701.69;10437969;28;20053;-59
2021/08/23 22:24:32;;;;;;;262.10;13.43;;;;;;;14.94;68.46;100710.63;10445227;28;20448;-60
2021/08/23 22:29:33;;;;;;;347.40;16.52;;;;;;;14.91;68.33;100704.72;10447952;28;20549;-60
2021/08/23 22:34:35;;;;;;;85.55;7.47;;;;;;;14.90;68.44;100714.41;10448160;28;20501;-60
2021/08/23 22:39:39;;;;;;;64.75;6.38;;;;;;;14.88;68.27;100708.41;10447474;28;20139;-59
2021/08/23 22:44:40;;;;;;;32.85;6.82;;;;;;;14.89;68.29;100711.88;10447407;28;20719;-59
2021/08/23 22:49:42;;;;;;;42.05;6.38;;;;;;;14.87;68.30;100716.41;10446751;28;20576;-59
2021/08/23 22:54:44;;;;;;;105.07;9.35;;;;;;;14.85;68.33;100715.66;10446082;28;20053;-59
2021/08/23 22:59:47;;;;;;;15.65;5.40;;;;;;;14.81;68.20;100708.91;10446687;28;20148;-59
2021/08/23 23:04:48;;;;;;;152.27;10.45;;;;;;;14.69;68.92;100709.69;10446768;28;20091;-59